Time;durP1;ratioP1;P1;durP2;ratioP2;P2;SDS_P1;SDS_P2;PMS_P1;PMS_P2;Temp;Humidity;BMP_temperature;BMP_pressure;BME280_temperature;BME280_humidity;BME280_pressure;Samples;Min_cycle;Max_cycle;Signal;HPM_P1;HPM_P2
2022/06/12 00:00:21;;;;;;;5.50;5.00;;;18.70;99.90;;;18.93;77.90;94742.38;5075789;28;20482;-55
2022/06/12 00:02:48;;;;;;;5.13;4.73;;;18.70;99.90;;;18.92;77.79;94739.91;5072108;28;20462;-54
2022/06/12 00:05:17;;;;;;;8.30;5.50;;;18.60;99.90;;;18.90;77.90;94745.44;5074909;28;20469;-54
2022/06/12 00:07:45;;;;;;;4.40;4.10;;;18.60;99.90;;;18.89;77.81;94733.13;5073372;28;20463;-55
2022/06/12 00:10:12;;;;;;;6.10;5.47;;;18.60;99.90;;;18.88;78.05;94741.31;5070361;28;20479;-55
2022/06/12 00:12:40;;;;;;;5.03;4.70;;;18.60;99.90;;;18.89;78.19;94748.28;5080793;28;20465;-53
2022/06/12 00:15:10;;;;;;;7.07;4.40;;;18.60;99.90;;;18.88;78.16;94741.31;5083151;28;20910;-54
2022/06/12 00:17:38;;;;;;;5.70;5.20;;;18.60;99.90;;;18.86;78.46;94733.50;5075311;28;20462;-58
2022/06/12 00:20:07;;;;;;;5.30;4.90;;;18.60;99.90;;;18.85;78.14;94726.50;5077851;28;20482;-55
2022/06/12 00:22:35;;;;;;;5.63;5.23;;;18.60;99.90;;;18.85;78.43;94728.38;5071017;28;20467;-53
2022/06/12 00:25:02;;;;;;;4.50;4.10;;;18.60;99.90;;;18.81;78.08;94722.59;5074134;28;21014;-55
2022/06/12 00:27:29;;;;;;;5.00;4.53;;;18.60;99.90;;;18.82;78.44;94732.22;5069068;28;20467;-55
2022/06/12 00:29:57;;;;;;;6.23;5.73;;;18.50;99.90;;;18.80;77.95;94728.91;5072387;28;20486;-55
2022/06/12 00:32:28;;;;;;;5.43;4.90;;;18.50;99.90;;;18.77;78.19;94730.13;5068248;28;20461;-55
2022/06/12 00:34:56;;;;;;;5.20;4.90;;;18.50;99.90;;;18.76;78.15;94728.50;5078851;28;20474;-53
2022/06/12 00:37:24;;;;;;;5.70;4.50;;;18.50;99.90;;;18.76;78.58;94730.31;5080394;28;20458;-54
2022/06/12 00:39:53;;;;;;;6.13;5.47;;;18.50;99.90;;;18.75;77.99;94728.69;5077983;28;20467;-56
2022/06/12 00:42:24;;;;;;;5.43;4.97;;;18.50;99.90;;;18.75;78.64;94731.34;5075717;28;20466;-54
2022/06/12 00:44:52;;;;;;;13.20;4.40;;;18.50;99.90;;;18.74;78.17;94730.50;5075576;28;20819;-53
2022/06/12 00:47:19;;;;;;;6.80;6.03;;;18.50;99.90;;;18.74;78.29;94732.34;5069230;28;20466;-55
2022/06/12 00:49:50;;;;;;;6.40;5.80;;;18.50;99.90;;;18.74;78.47;94727.03;5070104;28;20487;-54
2022/06/12 00:52:20;;;;;;;7.53;5.43;;;18.50;99.90;;;18.75;78.79;94724.19;5070003;28;20446;-53
2022/06/12 00:54:50;;;;;;;6.90;5.67;;;18.50;99.90;;;18.75;78.59;94726.84;5069615;28;20486;-53
2022/06/12 00:57:18;;;;;;;12.67;5.30;;;18.50;99.90;;;18.75;78.61;94729.50;5083684;28;20457;-54
2022/06/12 00:59:47;;;;;;;6.50;5.10;;;18.50;99.90;;;18.75;78.59;94720.69;5075872;28;20486;-55
2022/06/12 01:02:18;;;;;;;5.97;5.37;;;18.50;99.90;;;18.74;78.73;94727.84;5074237;28;20944;-55
2022/06/12 01:07:33;;;;;;;6.57;4.93;;;18.50;99.90;;;18.71;78.38;94724.75;5074296;28;20438;-55
2022/06/12 01:10:02;;;;;;;6.20;4.60;;;18.40;99.90;;;18.69;78.59;94726.81;5072826;28;20848;-56
2022/06/12 01:12:35;;;;;;;8.23;4.90;;;18.40;99.90;;;18.69;78.91;94726.81;5072169;28;20459;-54
2022/06/12 01:15:06;;;;;;;6.27;5.20;;;18.40;99.90;;;18.67;78.58;94727.00;5064429;28;20490;-54
2022/06/12 01:17:34;;;;;;;7.10;5.37;;;18.40;99.90;;;18.67;78.80;94716.34;5073399;28;20537;-55
2022/06/12 01:20:08;;;;;;;5.53;5.13;;;18.40;99.90;;;18.66;78.88;94722.66;5078143;28;20486;-55
2022/06/12 01:23:18;;;;;;;5.30;4.90;;;18.40;99.90;;;18.65;79.37;94715.69;5067388;28;20524;-55
2022/06/12 01:26:15;;;;;;;6.10;5.60;;;18.40;99.90;;;18.64;78.82;94717.53;5073100;28;20484;-54
2022/06/12 01:28:46;;;;;;;6.67;4.90;;;18.40;99.90;;;18.65;78.74;94710.34;5074165;28;20461;-55
2022/06/12 01:31:49;;;;;;;6.07;4.93;;;18.40;99.90;;;18.66;78.74;94703.22;5070301;28;20478;-54
2022/06/12 01:34:38;;;;;;;5.13;4.83;;;18.40;99.90;;;18.66;78.69;94701.34;5066338;28;20662;-56
2022/06/12 01:37:16;;;;;;;5.10;4.57;;;18.40;99.90;;;18.64;79.14;94714.06;5064826;28;20509;-55
2022/06/12 01:39:50;;;;;;;6.70;5.77;;;18.40;99.90;;;18.65;79.06;94702.38;5075740;28;20501;-55
2022/06/12 01:42:23;;;;;;;5.53;5.20;;;18.40;99.90;;;18.64;78.67;94704.22;5074478;28;21009;-56
2022/06/12 01:45:00;;;;;;;8.70;5.23;;;18.40;99.90;;;18.65;78.87;94705.03;5074079;28;20493;-55
2022/06/12 01:47:33;;;;;;;4.63;4.33;;;18.40;99.90;;;18.64;78.41;94704.22;5067518;28;20454;-55
2022/06/12 01:50:09;;;;;;;5.77;5.20;;;18.40;99.90;;;18.66;78.65;94703.22;5071163;28;20477;-55
2022/06/12 01:52:44;;;;;;;5.57;5.17;;;18.40;99.90;;;18.66;78.08;94703.22;5071801;28;20455;-54
2022/06/12 01:55:15;;;;;;;8.47;5.20;;;18.40;99.90;;;18.65;78.44;94705.03;5067384;28;20561;-55
2022/06/12 01:57:45;;;;;;;8.43;6.70;;;18.40;99.90;;;18.65;78.66;94702.38;5066668;28;20768;-55
2022/06/12 02:00:16;;;;;;;6.00;5.50;;;18.40;99.90;;;18.65;78.46;94710.34;5077631;28;20489;-55
2022/06/12 02:02:46;;;;;;;6.70;4.77;;;18.40;99.90;;;18.64;78.14;94703.41;5077141;28;20461;-55
2022/06/12 02:05:17;;;;;;;5.53;5.13;;;18.40;99.90;;;18.63;78.82;94707.88;5075958;28;20481;-56
2022/06/12 02:07:49;;;;;;;6.13;5.37;;;18.40;99.90;;;18.62;78.48;94716.06;5072638;28;20503;-54
2022/06/12 02:10:20;;;;;;;6.90;4.63;;;18.40;99.90;;;18.63;78.53;94713.22;5067852;28;21011;-55
2022/06/12 02:13:11;;;;;;;18.40;5.27;;;18.40;99.90;;;18.62;78.59;94711.59;5071779;28;20455;-54
2022/06/12 02:15:45;;;;;;;5.23;4.83;;;18.40;99.90;;;18.62;78.10;94705.41;5071839;28;20469;-53
2022/06/12 02:18:17;;;;;;;6.17;4.70;;;18.40;99.90;;;18.63;78.79;94707.88;5064245;28;20489;-55
2022/06/12 02:20:47;;;;;;;11.00;4.80;;;18.40;99.90;;;18.63;78.30;94712.41;5072902;28;20485;-55
2022/06/12 02:23:24;;;;;;;6.10;5.50;;;18.40;99.90;;;18.63;78.00;94715.88;5074190;28;20800;-53
2022/06/12 02:25:52;;;;;;;6.27;5.70;;;18.40;99.90;;;18.63;78.68;94707.88;5077835;28;20485;-54
2022/06/12 02:28:23;;;;;;;6.00;5.43;;;18.40;99.90;;;18.64;78.33;94709.53;5071392;28;20489;-54
2022/06/12 02:30:54;;;;;;;8.20;5.40;;;18.40;99.90;;;18.64;78.11;94704.22;5075429;28;20569;-54
2022/06/12 02:33:24;;;;;;;5.63;5.23;;;18.40;99.90;;;18.64;78.43;94717.53;5066725;28;20489;-53
2022/06/12 02:35:53;;;;;;;9.10;5.07;;;18.40;99.90;;;18.64;77.81;94704.22;5070079;28;20483;-52
2022/06/12 02:38:24;;;;;;;5.87;5.03;;;18.40;99.90;;;18.64;77.78;94709.53;5070086;28;20878;-55
2022/06/12 02:40:53;;;;;;;5.70;5.20;;;18.40;99.90;;;18.63;78.14;94707.88;5060494;28;20478;-56
2022/06/12 02:43:24;;;;;;;6.70;5.37;;;18.40;99.90;;;18.62;78.17;94708.91;5071909;28;20451;-55
2022/06/12 02:45:54;;;;;;;6.70;5.03;;;18.40;99.90;;;18.60;78.01;94708.28;5076079;28;20478;-53
2022/06/12 02:48:22;;;;;;;8.53;5.07;;;18.40;99.90;;;18.58;77.75;94712.16;5072790;28;20454;-55
2022/06/12 02:51:06;;;;;;;5.67;5.07;;;18.30;99.90;;;18.55;78.00;94713.38;5072147;28;20516;-51
2022/06/12 02:53:41;;;;;;;5.40;5.00;;;18.30;99.90;;;18.53;77.82;94712.75;5072016;28;20550;-55
2022/06/12 02:56:14;;;;;;;9.17;5.90;;;18.30;99.90;;;18.51;77.96;94720.09;5066918;28;20493;-56
2022/06/12 02:58:46;;;;;;;5.93;5.27;;;18.30;99.90;;;18.50;78.32;94715.78;5070475;28;20953;-55
2022/06/12 03:01:17;;;;;;;6.03;5.37;;;18.30;99.90;;;18.49;78.15;94719.47;5072013;28;20478;-53
2022/06/12 03:03:55;;;;;;;6.00;4.73;;;18.30;99.90;;;18.50;78.35;94712.28;5072681;28;20454;-53
2022/06/12 03:06:26;;;;;;;5.77;5.37;;;18.20;99.90;;;18.49;78.20;94711.47;5070428;28;20479;-55
2022/06/12 03:08:55;;;;;;;5.23;4.73;;;18.20;99.90;;;18.48;77.78;94709.00;5077719;28;20953;-58
2022/06/12 03:11:35;;;;;;;6.83;5.47;;;18.20;99.90;;;18.49;77.68;94711.47;5077043;28;20718;-56
2022/06/12 03:14:02;;;;;;;5.63;5.23;;;18.20;99.90;;;18.50;77.72;94717.63;5073851;28;20434;-52
2022/06/12 03:16:34;;;;;;;6.03;5.57;;;18.20;99.90;;;18.51;78.33;94717.41;5070421;28;20474;-55
2022/06/12 03:19:05;;;;;;;7.53;6.30;;;18.20;99.90;;;18.52;77.67;94715.59;5068844;28;20590;-54
2022/06/12 03:21:39;;;;;;;6.13;5.67;;;18.30;99.90;;;18.52;77.74;94710.28;5072551;28;20475;-55
2022/06/12 03:24:52;;;;;;;8.50;6.10;;;18.30;99.90;;;18.51;77.78;94712.09;5070059;28;20446;-53
2022/06/12 03:27:38;;;;;;;7.20;5.13;;;18.30;99.90;;;18.52;77.75;94708.44;5064086;28;20458;-55
2022/06/12 03:30:13;;;;;;;7.40;6.67;;;18.30;99.90;;;18.55;78.55;94710.69;5079836;28;21008;-54
2022/06/12 03:32:48;;;;;;;6.30;5.90;;;18.30;99.90;;;18.58;78.28;94712.16;5077916;28;20460;-54
2022/06/12 03:35:22;;;;;;;6.50;6.00;;;18.30;99.90;;;18.60;78.27;94708.28;5072836;28;20482;-54
2022/06/12 03:37:55;;;;;;;8.93;6.20;;;18.30;99.90;;;18.61;78.05;94715.25;5075611;28;20534;-57
2022/06/12 03:40:29;;;;;;;6.83;6.23;;;18.30;99.90;;;18.61;77.57;94720.59;5073083;28;20494;-54
2022/06/12 03:42:59;;;;;;;6.33;5.77;;;18.30;99.90;;;18.61;77.77;94725.91;5071957;28;20450;-53
2022/06/12 03:45:32;;;;;;;6.10;5.60;;;18.30;99.90;;;18.64;77.74;94709.53;5070218;28;20475;-55
2022/06/12 03:48:09;;;;;;;6.57;5.90;;;18.40;99.90;;;18.67;77.84;94715.50;5079666;28;20450;-56
2022/06/12 03:50:41;;;;;;;20.43;6.20;;;18.40;99.90;;;18.72;77.79;94715.75;5078839;28;20542;-53
2022/06/12 03:53:10;;;;;;;15.43;8.63;;;18.40;99.90;;;18.75;77.76;94716.19;5072940;28;20446;-55
2022/06/12 03:58:28;;;;;;;15.77;7.73;;;18.50;99.90;;;18.88;77.42;94720.81;5072640;28;21005;-59
2022/06/12 04:00:55;;;;;;;17.87;7.90;;;18.60;99.90;;;18.96;77.01;94715.34;5070757;28;20486;-52
2022/06/12 04:03:28;;;;;;;12.70;6.70;;;18.70;99.90;;;19.02;77.12;94707.56;5067097;28;20462;-56
2022/06/12 04:05:59;;;;;;;8.10;7.33;;;18.70;99.90;;;19.07;77.01;94713.13;5071961;28;20973;-55
2022/06/12 04:08:28;;;;;;;7.10;6.53;;;18.80;99.90;;;19.13;77.05;94723.84;5080786;28;20452;-53
2022/06/12 04:10:56;;;;;;;6.87;6.27;;;18.80;99.90;;;19.18;76.63;94720.59;5081556;28;20485;-54
2022/06/12 04:13:23;;;;;;;15.07;7.53;;;18.90;99.90;;;19.24;76.74;94725.13;5064398;28;20462;-54
2022/06/12 04:15:54;;;;;;;7.30;6.60;;;18.90;99.90;;;19.30;76.67;94732.34;5074446;28;20470;-54
2022/06/12 04:18:22;;;;;;;7.43;6.73;;;19.00;99.90;;;19.34;76.45;94730.91;5071578;28;20445;-54
2022/06/12 04:20:56;;;;;;;7.53;6.97;;;19.00;99.90;;;19.39;76.23;94726.84;5073999;28;20497;-54
2022/06/12 04:23:31;;;;;;;8.10;7.13;;;19.10;99.90;;;19.44;75.71;94727.06;5069138;28;20442;-54
2022/06/12 04:26:02;;;;;;;7.30;6.70;;;19.10;99.90;;;19.47;76.23;94734.66;5067424;28;20470;-55
2022/06/12 04:28:32;;;;;;;9.07;7.00;;;19.10;99.90;;;19.53;75.64;94740.06;5074361;28;20439;-55
2022/06/12 04:31:00;;;;;;;8.30;7.23;;;19.20;99.90;;;19.56;75.65;94738.81;5073986;28;21064;-53
2022/06/12 04:33:44;;;;;;;7.67;7.07;;;19.30;99.90;;;19.59;75.72;94737.59;5076900;28;20971;-53
2022/06/12 04:36:13;;;;;;;10.47;7.97;;;19.30;99.90;;;19.60;75.45;94744.59;5075063;28;20474;-53
2022/06/12 04:38:41;;;;;;;8.43;7.50;;;19.30;99.90;;;19.61;75.42;94747.06;5074840;28;20444;-57
2022/06/12 04:41:08;;;;;;;8.43;7.53;;;19.30;99.90;;;19.64;74.89;94751.16;5075184;28;20462;-53
2022/06/12 04:43:36;;;;;;;8.47;7.10;;;19.30;99.90;;;19.65;75.37;94748.28;5070155;28;20446;-54
2022/06/12 04:46:04;;;;;;;8.87;7.20;;;19.40;99.90;;;19.69;75.40;94754.06;5072784;28;20471;-54
2022/06/12 04:48:36;;;;;;;8.67;7.43;;;19.40;99.90;;;19.73;75.17;94749.16;5067885;28;20800;-54
2022/06/12 04:51:04;;;;;;;10.00;8.40;;;19.40;99.90;;;19.77;74.87;94751.25;5071552;28;20474;-53
2022/06/12 04:53:33;;;;;;;10.23;8.27;;;19.50;99.90;;;19.82;74.66;94748.78;5077642;28;20520;-55
2022/06/12 04:56:00;;;;;;;10.23;7.30;;;19.50;99.90;;;19.87;74.73;94756.22;5076250;28;20581;-54
2022/06/12 04:58:28;;;;;;;8.97;7.00;;;19.50;99.90;;;19.93;74.13;94757.25;5076003;28;20955;-53
2022/06/12 05:00:55;;;;;;;8.00;7.30;;;19.60;99.90;;;19.97;74.54;94759.31;5076634;28;20521;-55
2022/06/12 05:03:22;;;;;;;8.27;7.57;;;19.60;99.90;;;20.02;74.43;94754.19;5071824;28;20450;-55
2022/06/12 05:05:49;;;;;;;9.53;7.53;;;19.70;99.90;;;20.08;73.86;94755.25;5071168;28;20527;-54
2022/06/12 05:08:17;;;;;;;11.43;8.30;;;19.80;99.90;;;20.15;73.76;94752.59;5068876;28;20462;-54
2022/06/12 05:10:46;;;;;;;12.43;7.53;;;19.80;99.90;;;20.25;73.83;94758.38;5065092;28;20561;-53
2022/06/12 05:13:13;;;;;;;8.43;7.20;;;19.90;99.90;;;20.31;73.59;94754.88;5080760;28;20971;-54
2022/06/12 05:15:41;;;;;;;10.50;6.97;;;20.00;99.90;;;20.41;73.38;94757.97;5074152;28;20472;-56
2022/06/12 05:18:08;;;;;;;8.37;7.67;;;20.00;99.90;;;20.51;72.86;94762.09;5078042;28;20508;-55
2022/06/12 05:20:37;;;;;;;8.43;7.73;;;20.10;99.90;;;20.58;73.05;94758.41;5075370;28;20489;-56
2022/06/12 05:23:04;;;;;;;7.37;6.70;;;20.20;99.90;;;20.64;72.71;94762.09;5072996;28;20453;-55
2022/06/12 05:25:32;;;;;;;8.30;7.23;;;20.30;99.90;;;20.70;72.55;94761.31;5069224;28;20467;-54
2022/06/12 05:28:03;;;;;;;8.40;7.60;;;20.30;99.90;;;20.74;72.31;94756.38;5070791;28;20463;-55
2022/06/12 05:30:31;;;;;;;8.93;8.03;;;20.40;99.90;;;20.80;72.18;94754.75;5067823;28;20501;-53
2022/06/12 05:32:59;;;;;;;7.70;7.03;;;20.40;99.90;;;20.86;71.92;94753.91;5071382;28;20507;-56
2022/06/12 05:35:28;;;;;;;8.70;7.73;;;20.50;99.90;;;20.94;71.51;94753.69;5079182;28;20489;-57
2022/06/12 05:37:55;;;;;;;7.20;6.70;;;20.60;99.90;;;21.02;71.78;94758.84;5075404;28;20804;-55
2022/06/12 05:40:25;;;;;;;8.23;7.13;;;20.70;99.90;;;21.11;71.63;94762.91;5077908;28;20498;-54
2022/06/12 05:42:52;;;;;;;9.30;7.80;;;20.80;99.90;;;21.22;71.14;94757.97;5073915;28;20454;-54
2022/06/12 05:45:24;;;;;;;8.20;6.60;;;20.80;99.90;;;21.30;71.01;94765.78;5072444;28;20463;-55
2022/06/12 05:47:53;;;;;;;6.73;6.23;;;20.90;99.90;;;21.35;70.57;94765.16;5071366;28;20446;-57
2022/06/12 05:50:22;;;;;;;7.43;6.83;;;20.90;99.90;;;21.39;70.72;94769.88;5067077;28;20864;-52
2022/06/12 05:52:49;;;;;;;14.53;7.07;;;21.00;99.90;;;21.38;70.62;94770.06;5066398;28;20447;-56
2022/06/12 05:55:17;;;;;;;7.70;7.10;;;21.00;99.90;;;21.36;70.02;94770.28;5071200;28;20482;-54
2022/06/12 05:57:44;;;;;;;8.37;7.67;;;21.00;99.90;;;21.34;70.27;94772.38;5077921;28;20442;-56
2022/06/12 06:00:16;;;;;;;11.97;8.20;;;21.00;99.90;;;21.33;70.38;94770.72;5072357;28;20490;-54
2022/06/12 06:02:45;;;;;;;7.60;6.90;;;21.00;99.90;;;21.31;70.28;94767.44;5072141;28;20499;-56
2022/06/12 06:05:13;;;;;;;8.47;7.77;;;21.00;99.90;;;21.28;70.16;94773.19;5072383;28;20959;-54
2022/06/12 06:07:40;;;;;;;8.47;7.13;;;21.00;99.90;;;21.25;70.71;94769.06;5069606;28;20443;-53
2022/06/12 06:10:10;;;;;;;7.67;7.07;;;20.90;99.90;;;21.26;70.66;94767.25;5067277;28;20874;-55
2022/06/12 06:12:38;;;;;;;8.13;7.20;;;20.90;99.90;;;21.26;70.39;94764.56;5067961;28;20446;-55
2022/06/12 06:15:07;;;;;;;8.33;7.30;;;20.90;99.90;;;21.27;70.30;94779.56;5065886;28;20863;-56
2022/06/12 06:17:35;;;;;;;9.10;7.60;;;20.90;99.90;;;21.26;70.77;94780.63;5077894;28;20450;-56
2022/06/12 06:20:04;;;;;;;8.70;7.00;;;20.90;99.90;;;21.27;70.51;94782.25;5077726;28;20494;-55
2022/06/12 06:22:32;;;;;;;7.77;7.17;;;20.90;99.90;;;21.26;70.38;94786.78;5072602;28;20990;-56
2022/06/12 06:24:59;;;;;;;8.00;7.20;;;20.90;99.90;;;21.28;70.51;94783.91;5069627;28;20498;-54
2022/06/12 06:27:26;;;;;;;7.47;6.93;;;20.90;99.90;;;21.28;70.04;94783.91;5066153;28;20833;-56
2022/06/12 06:29:54;;;;;;;7.60;7.00;;;20.90;99.90;;;21.30;70.70;94789.84;5068857;28;20829;-53
2022/06/12 06:32:21;;;;;;;8.00;6.70;;;21.00;99.90;;;21.29;70.28;94797.06;5063482;28;20435;-54
2022/06/12 06:34:48;;;;;;;7.60;7.00;;;21.00;99.90;;;21.30;70.22;94797.88;5065933;28;20899;-56
2022/06/12 06:37:17;;;;;;;13.60;7.00;;;21.00;99.90;;;21.30;70.27;94804.06;5067200;28;20562;-55
2022/06/12 06:39:44;;;;;;;7.90;6.80;;;21.00;99.90;;;21.29;70.50;94797.06;5068309;28;20478;-56
2022/06/12 06:42:12;;;;;;;11.60;6.50;;;20.90;99.90;;;21.27;70.19;94809.00;5070716;28;20464;-56
2022/06/12 06:47:24;;;;;;;7.83;7.03;;;20.90;99.90;;;21.22;70.08;94800.78;5068475;28;20996;-55
2022/06/12 06:49:51;;;;;;;8.03;7.13;;;20.90;99.90;;;21.19;69.92;94802.00;5066914;28;20848;-55
2022/06/12 06:52:20;;;;;;;7.77;6.50;;;20.90;99.90;;;21.18;70.27;94810.25;5067501;28;20958;-57
2022/06/12 06:54:47;;;;;;;7.37;6.73;;;20.90;99.90;;;21.17;70.06;94809.44;5068935;28;21036;-55
2022/06/12 06:57:14;;;;;;;8.40;7.10;;;20.90;99.90;;;21.21;70.23;94801.78;5067857;28;20944;-57
2022/06/12 06:59:42;;;;;;;10.33;7.30;;;20.90;99.90;;;21.23;70.51;94808.59;5069197;28;20458;-56
2022/06/12 07:02:10;;;;;;;7.43;6.73;;;20.90;99.90;;;21.29;70.32;94805.09;5073304;28;20447;-53
2022/06/12 07:04:38;;;;;;;7.93;7.13;;;20.90;99.90;;;21.37;70.48;94804.06;5072344;28;20603;-55
2022/06/12 07:07:05;;;;;;;8.60;7.90;;;21.00;99.90;;;21.45;70.11;94811.84;5070781;28;20451;-54
2022/06/12 07:09:34;;;;;;;8.63;7.83;;;21.10;99.90;;;21.54;70.41;94804.47;5071185;28;20466;-56
2022/06/12 07:12:02;;;;;;;12.30;7.30;;;21.20;99.90;;;21.65;69.92;94814.50;5069652;28;20450;-56
2022/06/12 07:14:29;;;;;;;8.00;7.40;;;21.30;99.90;;;21.78;70.20;94813.66;5069827;28;20493;-53
2022/06/12 07:16:57;;;;;;;7.40;6.80;;;21.40;99.90;;;21.93;69.52;94809.91;5068471;28;20897;-56
2022/06/12 07:19:24;;;;;;;8.80;8.00;;;21.50;99.90;;;22.06;68.80;94815.22;5062606;28;20452;-55
2022/06/12 07:21:51;;;;;;;8.77;6.80;;;21.70;99.90;;;22.16;69.08;94818.25;5072638;28;20668;-55
2022/06/12 07:24:19;;;;;;;11.03;6.77;;;21.80;99.90;;;22.26;68.84;94816.97;5070263;28;20971;-56
2022/06/12 07:26:48;;;;;;;7.13;6.43;;;21.90;99.90;;;22.32;68.48;94821.50;5072196;28;20451;-56
2022/06/12 07:29:16;;;;;;;8.90;8.00;;;22.00;99.90;;;22.38;68.91;94815.28;5070925;28;21323;-57
2022/06/12 07:31:43;;;;;;;7.63;6.60;;;22.00;99.90;;;22.44;68.08;94819.78;5070697;28;20459;-56
2022/06/12 07:34:12;;;;;;;7.70;7.10;;;22.10;99.90;;;22.47;67.84;94813.19;5068733;28;20443;-55
2022/06/12 07:36:39;;;;;;;7.80;7.10;;;22.10;99.90;;;22.51;68.14;94820.56;5066912;28;20450;-58
2022/06/12 07:39:08;;;;;;;7.90;7.07;;;22.10;99.90;;;22.54;67.73;94825.50;5064006;28;20454;-57
2022/06/12 07:41:35;;;;;;;8.83;7.40;;;22.20;99.90;;;22.58;68.40;94825.88;5069368;28;20474;-56
2022/06/12 07:44:04;;;;;;;7.57;6.40;;;22.20;99.90;;;22.61;68.35;94824.66;5072830;28;20456;-57
2022/06/12 07:46:32;;;;;;;8.27;7.43;;;22.20;99.90;;;22.64;68.06;94827.72;5069272;28;20461;-57
2022/06/12 07:48:59;;;;;;;11.97;6.33;;;22.30;99.90;;;22.67;67.60;94818.41;5072568;28;20473;-57
2022/06/12 07:51:26;;;;;;;13.07;7.03;;;22.30;99.90;;;22.68;67.47;94822.72;5072642;28;20462;-56
2022/06/12 07:53:54;;;;;;;7.47;6.77;;;22.30;99.90;;;22.67;67.21;94823.78;5070818;28;20469;-55
2022/06/12 07:56:23;;;;;;;7.13;6.63;;;22.30;99.90;;;22.68;67.74;94822.72;5068500;28;20468;-55
2022/06/12 07:58:50;;;;;;;8.90;6.70;;;22.30;99.90;;;22.66;67.75;94830.97;5068916;28;20512;-56
2022/06/12 08:01:25;;;;;;;7.70;7.10;;;22.30;99.90;;;22.65;67.49;94826.69;5066012;28;20494;-55
2022/06/12 08:03:52;;;;;;;9.33;5.53;;;22.30;99.90;;;22.67;66.80;94826.47;5069285;28;20554;-57
2022/06/12 08:06:19;;;;;;;5.73;5.33;;;22.30;99.90;;;22.64;66.05;94829.56;5078699;28;20470;-56
2022/06/12 08:08:47;;;;;;;6.30;5.47;;;22.30;99.70;;;22.61;65.76;94830.00;5081441;28;20477;-59
2022/06/12 08:11:14;;;;;;;5.53;5.03;;;22.30;99.80;;;22.59;66.10;94826.69;5077999;28;20473;-55
2022/06/12 08:13:42;;;;;;;14.33;9.83;;;22.20;99.70;;;22.58;66.15;94820.53;5070263;28;20508;-56
2022/06/12 08:16:09;;;;;;;6.80;6.03;;;22.20;99.60;;;22.61;65.81;94824.66;5075363;28;20855;-59
2022/06/12 08:18:38;;;;;;;5.70;5.20;;;22.20;99.60;;;22.62;66.14;94831.63;5069950;28;20458;-55
2022/06/12 08:21:08;;;;;;;8.03;5.93;;;22.30;99.50;;;22.62;66.22;94832.47;5069718;28;20635;-57
2022/06/12 08:23:38;;;;;;;9.87;5.80;;;22.30;99.60;;;22.61;66.11;94830.00;5071908;28;20454;-54
2022/06/12 08:26:09;;;;;;;8.10;5.57;;;22.20;99.50;;;22.58;65.53;94841.16;5082793;28;20482;-56
2022/06/12 08:28:38;;;;;;;7.47;5.10;;;22.20;99.50;;;22.53;65.56;94839.94;5082988;28;20453;-56
2022/06/12 08:31:07;;;;;;;9.87;6.73;;;22.20;99.50;;;22.47;66.33;94842.66;5079824;28;20478;-58
2022/06/12 08:33:35;;;;;;;7.40;6.70;;;22.10;99.50;;;22.41;66.55;94846.19;5077848;28;21091;-57
2022/06/12 08:36:04;;;;;;;6.73;6.13;;;22.10;99.90;;;22.37;66.85;94841.28;5075113;28;20469;-57
2022/06/12 08:38:31;;;;;;;9.20;6.73;;;22.10;99.90;;;22.37;67.09;94845.81;5074414;28;20560;-56
2022/06/12 08:41:03;;;;;;;8.73;7.00;;;22.00;99.90;;;22.40;68.20;94837.31;5070328;28;20490;-56
2022/06/12 08:43:34;;;;;;;9.37;8.37;;;22.10;99.90;;;22.44;67.81;94841.22;5069080;28;20811;-56
2022/06/12 08:46:09;;;;;;;11.43;7.60;;;22.10;99.90;;;22.50;68.58;94851.09;5074952;28;20465;-55
2022/06/12 08:48:45;;;;;;;12.20;8.13;;;22.10;99.90;;;22.59;67.94;94853.50;5080332;28;20438;-54
2022/06/12 08:51:18;;;;;;;12.37;7.87;;;22.20;99.90;;;22.67;68.01;94858.63;5079522;28;20497;-56
2022/06/12 08:53:49;;;;;;;9.40;7.03;;;22.30;99.90;;;22.74;68.56;94846.00;5073794;28;20451;-59
2022/06/12 08:56:20;;;;;;;8.10;7.03;;;22.40;99.90;;;22.81;67.96;94851.34;5077622;28;20927;-56
2022/06/12 08:58:51;;;;;;;7.40;6.60;;;22.40;99.90;;;22.83;67.93;94855.41;5074495;28;20450;-54
2022/06/12 09:01:18;;;;;;;27.20;8.17;;;22.50;99.90;;;22.82;67.40;94848.44;5071121;28;21022;-55
2022/06/12 09:03:49;;;;;;;7.73;7.10;;;22.50;99.90;;;22.81;67.63;94849.47;5069230;28;20454;-58
2022/06/12 09:06:26;;;;;;;7.20;6.50;;;22.50;99.90;;;22.79;66.88;94845.34;5068946;28;20502;-54
2022/06/12 09:08:57;;;;;;;12.40;6.70;;;22.50;99.90;;;22.76;67.45;94853.81;5083596;28;20965;-55
2022/06/12 09:11:37;;;;;;;7.33;6.73;;;22.40;99.90;;;22.73;68.23;94849.72;5073412;28;20471;-58
2022/06/12 09:14:11;;;;;;;8.10;7.30;;;22.40;99.90;;;22.72;67.95;94843.53;5075720;28;20446;-57
2022/06/12 09:16:44;;;;;;;11.30;7.13;;;22.40;99.90;;;22.71;68.21;94854.47;5074717;28;20453;-53
2022/06/12 09:19:16;;;;;;;10.97;7.83;;;22.40;99.90;;;22.73;67.58;94849.72;5072865;28;20909;-56
2022/06/12 09:21:51;;;;;;;8.23;7.43;;;22.40;99.90;;;22.76;67.97;94849.31;5058551;28;20990;-55
2022/06/12 09:24:28;;;;;;;6.90;6.20;;;22.40;99.90;;;22.82;67.52;94855.63;5067071;28;20453;-56
2022/06/12 09:27:03;;;;;;;6.00;5.40;;;22.50;99.90;;;22.86;66.68;94846.13;5067746;28;20450;-58
2022/06/12 09:29:41;;;;;;;13.53;6.97;;;22.50;99.90;;;22.87;66.45;94855.84;5076729;28;20478;-57
2022/06/12 09:32:14;;;;;;;7.23;6.60;;;22.50;99.90;;;22.86;66.39;94854.19;5080715;28;20457;-57
2022/06/12 09:34:45;;;;;;;8.50;6.07;;;22.50;99.80;;;22.80;65.72;94855.84;5073836;28;20561;-55
2022/06/12 09:40:25;;;;;;;7.17;6.53;;;22.50;99.50;;;22.80;65.86;94850.50;5071284;28;20449;-55
2022/06/12 09:42:58;;;;;;;8.80;6.43;;;22.50;99.40;;;22.79;65.74;94858.75;5069913;28;20461;-54
2022/06/12 09:45:29;;;;;;;8.37;7.10;;;22.50;99.40;;;22.75;65.99;94861.06;5068033;28;20463;-56
2022/06/12 09:48:03;;;;;;;14.63;7.43;;;22.40;99.30;;;22.71;65.47;94868.72;5069129;28;20439;-56
2022/06/12 09:50:42;;;;;;;7.47;6.77;;;22.40;99.40;;;22.67;65.74;94855.97;5076713;28;20480;-56
2022/06/12 09:53:31;;;;;;;6.07;5.63;;;22.40;99.20;;;22.65;65.71;94853.50;5079176;28;20465;-57
2022/06/12 09:56:01;;;;;;;7.97;7.00;;;22.40;99.20;;;22.66;66.14;94856.97;5078591;28;20473;-57
2022/06/12 09:58:31;;;;;;;7.60;6.80;;;22.30;99.30;;;22.65;65.78;94852.66;5077351;28;20472;-53
2022/06/12 10:01:04;;;;;;;10.17;7.07;;;22.30;99.50;;;22.65;66.31;94856.16;5075019;28;20509;-55
2022/06/12 10:03:39;;;;;;;7.40;6.70;;;22.30;99.60;;;22.65;65.91;94849.97;5071016;28;20473;-54
2022/06/12 10:06:13;;;;;;;13.53;7.23;;;22.30;99.90;;;22.58;66.30;94851.88;5069906;28;21356;-53
2022/06/12 10:08:49;;;;;;;7.93;7.33;;;22.20;99.60;;;22.47;66.45;94848.84;5065012;28;20508;-55
2022/06/12 10:11:27;;;;;;;8.63;7.83;;;22.10;99.70;;;22.39;66.82;94846.41;5074106;28;20489;-55
2022/06/12 10:13:57;;;;;;;8.37;7.33;;;22.10;99.90;;;22.30;67.10;94844.97;5077625;28;20452;-59
2022/06/12 10:16:27;;;;;;;9.23;7.60;;;22.00;99.90;;;22.24;67.47;94849.31;5079262;28;20540;-57
2022/06/12 10:19:00;;;;;;;11.87;6.33;;;21.90;99.90;;;22.19;68.13;94841.94;5076209;28;20450;-56
2022/06/12 10:21:27;;;;;;;8.87;7.00;;;21.90;99.90;;;22.15;67.64;94843.41;5072609;28;20491;-56
2022/06/12 10:23:56;;;;;;;8.30;6.97;;;21.80;99.90;;;22.09;67.91;94844.25;5073119;28;20462;-58
2022/06/12 10:26:24;;;;;;;6.53;5.97;;;21.80;99.90;;;22.05;67.37;94848.38;5070595;28;20467;-55
2022/06/12 10:29:06;;;;;;;8.10;7.13;;;21.70;99.90;;;22.03;67.35;94845.09;5068106;28;20459;-54
2022/06/12 10:31:35;;;;;;;7.20;6.50;;;21.70;99.90;;;22.03;67.77;94842.44;5065071;28;20482;-56
2022/06/12 10:34:15;;;;;;;6.57;5.97;;;21.70;99.90;;;22.07;67.16;94846.31;5078927;28;20569;-55
2022/06/12 10:36:42;;;;;;;6.93;6.43;;;21.70;99.90;;;22.12;67.14;94843.00;5073936;28;20465;-56
2022/06/12 10:39:16;;;;;;;6.30;5.77;;;21.80;99.90;;;22.22;66.88;94837.19;5078450;28;20477;-56
2022/06/12 10:41:46;;;;;;;6.40;5.80;;;21.80;99.90;;;22.34;66.91;94846.25;5071115;28;20474;-56
2022/06/12 10:44:36;;;;;;;6.97;6.30;;;22.00;99.90;;;22.48;65.89;94842.44;5067504;28;20451;-55